Time;durP1;ratioP1;P1;durP2;ratioP2;P2;SDS_P1;SDS_P2;PMS_P1;PMS_P2;Temp;Humidity;BMP_temperature;BMP_pressure;BME280_temperature;BME280_humidity;BME280_pressure;Samples;Min_cycle;Max_cycle;Signal;HPM_P1;HPM_P2
2021/06/16 00:01:01;;;;;;;;;21.75;21.75;;;;;;;;3551948;39;113329;-72
2021/06/16 00:03:27;;;;;;;;;21.25;20.75;;;;;;;;3547878;39;114168;-74
2021/06/16 00:05:54;;;;;;;;;21.75;21.00;;;;;;;;3549714;39;112242;-74
2021/06/16 00:08:22;;;;;;;;;22.50;21.00;;;;;;;;3548579;39;113238;-74
2021/06/16 00:10:48;;;;;;;;;23.00;20.50;;;;;;;;3548857;39;114507;-74
2021/06/16 00:13:15;;;;;;;;;18.50;18.50;;;;;;;;3548948;39;114090;-73
2021/06/16 00:15:43;;;;;;;;;25.50;20.50;;;;;;;;3548921;39;113337;-73
2021/06/16 00:18:10;;;;;;;;;22.75;21.75;;;;;;;;3553427;39;112449;-74
2021/06/16 00:20:38;;;;;;;;;21.50;21.50;;;;;;;;3550376;39;113543;-74
2021/06/16 00:23:05;;;;;;;;;24.25;23.50;;;;;;;;3549758;39;113909;-74
2021/06/16 00:25:33;;;;;;;;;21.75;19.50;;;;;;;;3549931;39;113010;-74
2021/06/16 00:28:00;;;;;;;;;25.75;23.50;;;;;;;;3550064;39;113761;-76
2021/06/16 00:30:26;;;;;;;;;25.25;23.00;;;;;;;;3549045;39;114096;-74
2021/06/16 00:32:53;;;;;;;;;22.00;21.25;;;;;;;;3550026;39;112244;-74
2021/06/16 00:35:21;;;;;;;;;23.25;21.00;;;;;;;;3551621;39;113065;-74
2021/06/16 00:37:47;;;;;;;;;22.75;21.75;;;;;;;;3552047;39;113966;-74
2021/06/16 00:40:14;;;;;;;;;22.75;22.75;;;;;;;;3551173;39;113205;-74
2021/06/16 00:42:43;;;;;;;;;26.25;26.00;;;;;;;;3548374;39;113807;-74
2021/06/16 00:45:10;;;;;;;;;21.00;17.50;;;;;;;;3549799;39;112631;-74
2021/06/16 00:47:37;;;;;;;;;24.00;24.00;;;;;;;;3551437;39;113280;-74
2021/06/16 00:50:05;;;;;;;;;22.75;20.75;;;;;;;;3549718;39;114157;-74
2021/06/16 00:52:31;;;;;;;;;25.25;22.00;;;;;;;;3549699;39;112401;-73
2021/06/16 00:54:58;;;;;;;;;24.50;23.00;;;;;;;;3549571;39;112960;-74
2021/06/16 00:57:24;;;;;;;;;25.25;23.50;;;;;;;;3549110;39;114830;-73
2021/06/16 00:59:57;;;;;;;;;23.75;22.00;;;;;;;;3552330;39;111856;-73
2021/06/16 01:02:25;;;;;;;;;25.25;23.00;;;;;;;;3549895;39;113874;-74
2021/06/16 01:04:52;;;;;;;;;23.25;21.50;;;;;;;;3551251;39;112094;-75
2021/06/16 01:07:22;;;;;;;;;26.00;24.00;;;;;;;;3549593;39;113350;-75
2021/06/16 01:09:54;;;;;;;;;23.00;21.75;;;;;;;;3549232;39;114051;-75
2021/06/16 01:12:23;;;;;;;;;21.50;20.50;;;;;;;;3550457;39;111836;-75
2021/06/16 01:14:51;;;;;;;;;24.50;21.75;;;;;;;;3551286;39;113245;-75
2021/06/16 01:17:21;;;;;;;;;24.25;24.00;;;;;;;;3549188;39;113988;-75
2021/06/16 01:20:03;;;;;;;;;22.50;21.00;;;;;;;;3547603;39;112316;-73
2021/06/16 01:22:36;;;;;;;;;23.75;23.50;;;;;;;;3550316;39;113418;-73
2021/06/16 01:25:05;;;;;;;;;24.75;22.25;;;;;;;;3547854;39;113153;-72
2021/06/16 01:27:34;;;;;;;;;22.75;21.50;;;;;;;;3549714;39;113202;-73
2021/06/16 01:30:01;;;;;;;;;27.50;23.00;;;;;;;;3549619;39;113962;-72
2021/06/16 01:32:28;;;;;;;;;25.75;24.00;;;;;;;;3547858;39;111906;-72
2021/06/16 01:34:55;;;;;;;;;25.25;23.50;;;;;;;;3549210;39;113258;-72
2021/06/16 01:37:21;;;;;;;;;25.50;24.75;;;;;;;;3547792;39;114630;-72
2021/06/16 01:39:48;;;;;;;;;24.25;22.75;;;;;;;;3548930;39;112175;-72
2021/06/16 01:42:16;;;;;;;;;25.25;22.50;;;;;;;;3548310;39;113539;-73
2021/06/16 01:44:45;;;;;;;;;21.75;20.25;;;;;;;;3550803;39;114676;-72
2021/06/16 01:47:11;;;;;;;;;23.50;22.75;;;;;;;;3548633;39;113171;-72
2021/06/16 01:49:38;;;;;;;;;25.25;24.50;;;;;;;;3547829;39;113906;-73
2021/06/16 01:52:06;;;;;;;;;25.25;24.25;;;;;;;;3549184;39;111826;-72
2021/06/16 01:54:33;;;;;;;;;19.50;19.00;;;;;;;;3547952;39;113346;-72
2021/06/16 01:57:00;;;;;;;;;27.00;23.75;;;;;;;;3548934;39;113890;-72
2021/06/16 01:59:27;;;;;;;;;24.75;24.00;;;;;;;;3545763;39;111838;-72
2021/06/16 02:01:55;;;;;;;;;25.25;24.25;;;;;;;;3548905;39;113491;-72
2021/06/16 02:04:21;;;;;;;;;23.25;22.25;;;;;;;;3547589;39;114021;-74
2021/06/16 02:06:50;;;;;;;;;27.00;26.00;;;;;;;;3551307;39;111882;-72
2021/06/16 02:09:17;;;;;;;;;24.25;21.00;;;;;;;;3547804;39;113880;-73
2021/06/16 02:11:44;;;;;;;;;26.00;25.00;;;;;;;;3549584;39;111758;-72
2021/06/16 02:14:12;;;;;;;;;24.25;21.50;;;;;;;;3549404;39;113281;-72
2021/06/16 02:16:40;;;;;;;;;28.00;27.50;;;;;;;;3549179;39;113973;-72
2021/06/16 02:19:09;;;;;;;;;23.50;23.00;;;;;;;;3549916;39;112202;-72
2021/06/16 02:21:36;;;;;;;;;23.25;23.25;;;;;;;;3549469;39;113380;-72
2021/06/16 02:24:03;;;;;;;;;25.00;23.25;;;;;;;;3550576;39;114963;-72
2021/06/16 02:26:29;;;;;;;;;25.25;23.75;;;;;;;;3552282;39;113414;-73
2021/06/16 02:28:56;;;;;;;;;21.75;21.75;;;;;;;;3548495;39;113866;-72
2021/06/16 02:31:22;;;;;;;;;24.25;24.25;;;;;;;;3549782;39;112241;-72
2021/06/16 02:33:50;;;;;;;;;27.25;25.00;;;;;;;;3550492;39;114417;-71
2021/06/16 02:36:19;;;;;;;;;25.50;23.25;;;;;;;;3548542;39;114074;-72
2021/06/16 02:38:46;;;;;;;;;24.00;24.00;;;;;;;;3550225;39;111845;-72
2021/06/16 02:41:15;;;;;;;;;24.75;24.00;;;;;;;;3550231;39;113702;-72
2021/06/16 02:43:42;;;;;;;;;24.00;23.50;;;;;;;;3548436;39;114499;-71
2021/06/16 02:46:11;;;;;;;;;24.50;21.50;;;;;;;;3550526;39;112229;-71
2021/06/16 02:48:39;;;;;;;;;26.00;24.00;;;;;;;;3551427;39;113241;-72
2021/06/16 02:51:06;;;;;;;;;24.75;23.00;;;;;;;;3549541;39;111897;-72
2021/06/16 02:53:34;;;;;;;;;22.50;22.25;;;;;;;;3549407;39;113519;-71
2021/06/16 02:56:02;;;;;;;;;24.50;23.50;;;;;;;;3552073;39;113975;-72
2021/06/16 02:58:30;;;;;;;;;22.50;22.00;;;;;;;;3548380;39;113368;-72
2021/06/16 03:01:00;;;;;;;;;22.00;21.50;;;;;;;;3552494;39;113553;-72
2021/06/16 03:03:27;;;;;;;;;24.00;24.00;;;;;;;;3547655;39;115983;-72
2021/06/16 03:05:55;;;;;;;;;29.50;23.50;;;;;;;;3550171;39;112645;-73
2021/06/16 03:08:23;;;;;;;;;24.75;23.75;;;;;;;;3550805;39;113556;-72
2021/06/16 03:10:52;;;;;;;;;28.25;24.00;;;;;;;;3554030;39;114184;-72
2021/06/16 03:13:19;;;;;;;;;26.50;23.25;;;;;;;;3550320;39;113226;-72
2021/06/16 03:15:47;;;;;;;;;23.00;21.75;;;;;;;;3550978;39;113914;-72
2021/06/16 03:18:15;;;;;;;;;21.50;20.50;;;;;;;;3550481;39;112055;-73
2021/06/16 03:20:42;;;;;;;;;25.50;24.50;;;;;;;;3549172;39;112764;-74
2021/06/16 03:23:10;;;;;;;;;24.00;23.00;;;;;;;;3551331;39;114394;-71
2021/06/16 03:25:37;;;;;;;;;25.50;22.75;;;;;;;;3548533;39;113126;-71
2021/06/16 03:28:06;;;;;;;;;25.75;24.50;;;;;;;;3549795;39;112495;-72
2021/06/16 03:30:33;;;;;;;;;28.00;23.00;;;;;;;;3549958;39;113904;-72
2021/06/16 03:33:00;;;;;;;;;23.00;22.75;;;;;;;;3552998;39;112406;-72
2021/06/16 03:35:27;;;;;;;;;27.25;24.00;;;;;;;;3547862;39;113977;-72
2021/06/16 03:37:55;;;;;;;;;21.75;21.25;;;;;;;;3549868;39;112283;-72
2021/06/16 03:40:24;;;;;;;;;24.50;24.00;;;;;;;;3548590;39;113711;-71
2021/06/16 03:42:51;;;;;;;;;24.25;22.75;;;;;;;;3549272;39;113902;-72
2021/06/16 03:45:20;;;;;;;;;23.25;22.00;;;;;;;;3548889;39;111755;-71
2021/06/16 03:47:47;;;;;;;;;22.50;21.25;;;;;;;;3549426;39;113210;-72
2021/06/16 03:50:16;;;;;;;;;23.75;20.75;;;;;;;;3548931;39;114041;-72
2021/06/16 03:52:43;;;;;;;;;24.00;22.00;;;;;;;;3549083;39;111794;-72
2021/06/16 03:55:11;;;;;;;;;24.00;21.75;;;;;;;;3551611;39;113676;-72
2021/06/16 03:57:38;;;;;;;;;22.00;22.00;;;;;;;;3548696;39;112450;-72
2021/06/16 04:00:05;;;;;;;;;24.00;22.00;;;;;;;;3549823;39;113212;-72
2021/06/16 04:02:33;;;;;;;;;19.50;19.00;;;;;;;;3547787;39;114244;-72
2021/06/16 04:05:01;;;;;;;;;27.25;26.25;;;;;;;;3549962;39;111711;-71
2021/06/16 04:07:28;;;;;;;;;21.50;20.50;;;;;;;;3548348;39;113292;-72
2021/06/16 04:09:55;;;;;;;;;25.25;23.75;;;;;;;;3549455;39;113896;-72
2021/06/16 04:12:22;;;;;;;;;24.00;23.25;;;;;;;;3548449;39;112443;-73
2021/06/16 04:14:49;;;;;;;;;25.75;23.50;;;;;;;;3549431;39;113208;-72
2021/06/16 04:17:17;;;;;;;;;26.75;24.50;;;;;;;;3550206;39;114017;-72
2021/06/16 04:19:46;;;;;;;;;23.25;20.00;;;;;;;;3549928;39;113254;-72
2021/06/16 04:22:13;;;;;;;;;23.75;21.50;;;;;;;;3550759;39;114316;-71
2021/06/16 04:24:39;;;;;;;;;25.00;23.25;;;;;;;;3547025;39;112431;-73
2021/06/16 04:27:07;;;;;;;;;22.25;17.75;;;;;;;;3551649;39;113392;-73
2021/06/16 04:29:34;;;;;;;;;21.75;21.75;;;;;;;;3549893;39;114156;-72
2021/06/16 04:32:00;;;;;;;;;27.50;24.00;;;;;;;;3550240;39;112262;-73
2021/06/16 04:34:27;;;;;;;;;21.75;20.25;;;;;;;;3547928;39;113432;-73
2021/06/16 04:36:55;;;;;;;;;24.50;22.75;;;;;;;;3552071;39;114258;-71
2021/06/16 04:39:21;;;;;;;;;25.50;24.25;;;;;;;;3548353;39;113601;-73
2021/06/16 04:41:48;;;;;;;;;24.25;22.25;;;;;;;;3548851;39;114689;-71
2021/06/16 04:44:15;;;;;;;;;26.25;23.25;;;;;;;;3548925;39;112184;-72
2021/06/16 04:46:41;;;;;;;;;23.25;21.75;;;;;;;;3548786;39;113230;-71
2021/06/16 04:49:08;;;;;;;;;22.75;22.00;;;;;;;;3548909;39;113972;-73
2021/06/16 04:51:34;;;;;;;;;23.75;23.00;;;;;;;;3548254;39;111987;-72
2021/06/16 04:54:02;;;;;;;;;21.00;20.25;;;;;;;;3550144;39;113350;-73
2021/06/16 04:56:29;;;;;;;;;24.00;23.50;;;;;;;;3547529;39;114251;-73
2021/06/16 04:58:55;;;;;;;;;28.00;24.00;;;;;;;;3552494;39;112281;-72
2021/06/16 05:01:22;;;;;;;;;26.75;24.25;;;;;;;;3549923;39;113964;-72
2021/06/16 05:03:48;;;;;;;;;25.25;24.75;;;;;;;;3550116;39;111950;-72
2021/06/16 05:06:15;;;;;;;;;23.75;23.25;;;;;;;;3550949;39;113241;-73
2021/06/16 05:08:42;;;;;;;;;23.00;21.50;;;;;;;;3548670;39;114382;-73
2021/06/16 05:11:10;;;;;;;;;23.50;22.75;;;;;;;;3549943;39;112166;-72
2021/06/16 05:13:36;;;;;;;;;29.00;25.00;;;;;;;;3550491;39;113331;-72
2021/06/16 05:16:03;;;;;;;;;26.00;23.25;;;;;;;;3548660;39;114272;-72
2021/06/16 05:18:30;;;;;;;;;25.25;24.25;;;;;;;;3551746;39;112291;-72
2021/06/16 05:20:57;;;;;;;;;22.50;21.50;;;;;;;;3550268;39;113197;-72
2021/06/16 05:23:26;;;;;;;;;26.00;24.00;;;;;;;;3549332;39;112160;-73
2021/06/16 05:25:52;;;;;;;;;24.25;23.50;;;;;;;;3548134;39;113690;-72
2021/06/16 05:28:20;;;;;;;;;24.00;24.00;;;;;;;;3547449;39;113770;-72
2021/06/16 05:30:47;;;;;;;;;27.00;25.25;;;;;;;;3548828;39;111816;-73
2021/06/16 05:33:14;;;;;;;;;23.25;22.00;;;;;;;;3548795;39;113681;-72
2021/06/16 05:35:40;;;;;;;;;29.25;26.25;;;;;;;;3547969;39;113964;-72
2021/06/16 05:38:07;;;;;;;;;23.50;22.50;;;;;;;;3547628;39;112317;-73
2021/06/16 05:40:33;;;;;;;;;29.25;24.00;;;;;;;;3549744;39;113355;-75
2021/06/16 05:43:00;;;;;;;;;26.75;24.50;;;;;;;;3552146;39;113870;-73
2021/06/16 05:45:28;;;;;;;;;23.25;21.25;;;;;;;;3549460;39;113230;-74
2021/06/16 05:47:54;;;;;;;;;24.00;22.75;;;;;;;;3549488;39;113970;-72
2021/06/16 05:50:21;;;;;;;;;26.25;24.25;;;;;;;;3549653;39;112314;-73
2021/06/16 05:52:48;;;;;;;;;23.00;21.50;;;;;;;;3550865;39;113333;-73
2021/06/16 05:55:15;;;;;;;;;27.00;24.25;;;;;;;;3549009;39;114544;-73
2021/06/16 05:57:41;;;;;;;;;24.00;23.50;;;;;;;;3550761;39;111878;-73
2021/06/16 06:00:09;;;;;;;;;27.50;26.75;;;;;;;;3549877;39;113606;-73
2021/06/16 06:02:37;;;;;;;;;24.00;22.50;;;;;;;;3549252;39;114004;-75
2021/06/16 06:05:04;;;;;;;;;30.50;24.25;;;;;;;;3552606;39;112169;-73
2021/06/16 06:07:30;;;;;;;;;23.75;23.75;;;;;;;;3549024;39;113942;-73
2021/06/16 06:09:57;;;;;;;;;26.00;24.75;;;;;;;;3547798;39;111921;-73
2021/06/16 06:12:24;;;;;;;;;26.75;24.50;;;;;;;;3547980;39;113429;-73
2021/06/16 06:14:50;;;;;;;;;28.25;26.25;;;;;;;;3547694;39;113620;-72
2021/06/16 06:17:17;;;;;;;;;24.00;23.50;;;;;;;;3547716;39;112124;-73
2021/06/16 06:19:45;;;;;;;;;30.25;26.00;;;;;;;;3547505;39;113796;-73
2021/06/16 06:22:11;;;;;;;;;24.25;24.25;;;;;;;;3546501;39;113984;-74
2021/06/16 06:24:38;;;;;;;;;32.75;27.75;;;;;;;;3546608;39;111880;-75
2021/06/16 06:27:05;;;;;;;;;27.75;25.25;;;;;;;;3548663;39;113200;-75
2021/06/16 06:29:33;;;;;;;;;32.00;26.00;;;;;;;;3546924;39;112234;-75
2021/06/16 06:31:59;;;;;;;;;31.00;29.00;;;;;;;;3547865;39;113231;-74
2021/06/16 06:34:26;;;;;;;;;31.25;29.25;;;;;;;;3548546;39;113922;-75
2021/06/16 06:36:54;;;;;;;;;23.75;23.50;;;;;;;;3545058;39;112500;-73
2021/06/16 06:39:21;;;;;;;;;27.75;26.00;;;;;;;;3547115;39;113580;-73
2021/06/16 06:41:47;;;;;;;;;28.75;26.25;;;;;;;;3548003;39;114135;-74
2021/06/16 06:44:14;;;;;;;;;24.00;24.00;;;;;;;;3547166;39;111853;-76
2021/06/16 06:46:40;;;;;;;;;29.50;27.75;;;;;;;;3550710;39;113792;-76
2021/06/16 06:49:07;;;;;;;;;34.25;30.50;;;;;;;;3547187;39;112541;-75
2021/06/16 06:51:34;;;;;;;;;26.00;25.25;;;;;;;;3548917;39;113281;-74
2021/06/16 06:54:02;;;;;;;;;29.75;28.25;;;;;;;;3547312;39;113920;-74
2021/06/16 06:56:28;;;;;;;;;28.50;25.50;;;;;;;;3549057;39;112260;-73
2021/06/16 06:58:55;;;;;;;;;28.75;27.25;;;;;;;;3547528;39;113255;-71
2021/06/16 07:01:21;;;;;;;;;28.00;27.25;;;;;;;;3548586;39;113929;-78
2021/06/16 07:03:48;;;;;;;;;28.50;26.50;;;;;;;;3550495;39;112294;-75
2021/06/16 07:06:14;;;;;;;;;30.00;26.75;;;;;;;;3548426;39;113819;-74
2021/06/16 07:08:41;;;;;;;;;30.00;26.50;;;;;;;;3551820;39;113934;-75
2021/06/16 07:11:09;;;;;;;;;24.50;23.00;;;;;;;;3546939;39;113596;-76
2021/06/16 07:13:36;;;;;;;;;27.00;26.25;;;;;;;;3547106;39;114245;-75
2021/06/16 07:16:02;;;;;;;;;21.75;21.00;;;;;;;;3547294;39;111849;-76
2021/06/16 07:18:29;;;;;;;;;27.75;25.25;;;;;;;;3547026;39;113361;-76
2021/06/16 07:20:55;;;;;;;;;30.25;27.75;;;;;;;;3549483;39;114087;-77
2021/06/16 07:23:22;;;;;;;;;29.00;26.25;;;;;;;;3546941;39;112054;-76
2021/06/16 07:25:49;;;;;;;;;29.75;25.50;;;;;;;;3548093;39;113493;-76
2021/06/16 07:28:19;;;;;;;;;28.25;26.00;;;;;;;;3548243;39;114190;-75
2021/06/16 07:30:48;;;;;;;;;28.25;24.75;;;;;;;;3552564;39;112433;-76
2021/06/16 07:33:15;;;;;;;;;30.50;30.50;;;;;;;;3550769;39;114284;-75
2021/06/16 07:35:47;;;;;;;;;27.50;26.25;;;;;;;;3549131;39;111983;-75
2021/06/16 07:38:14;;;;;;;;;27.25;26.00;;;;;;;;3551234;39;113358;-75
2021/06/16 07:40:41;;;;;;;;;24.75;24.75;;;;;;;;3549125;39;114363;-74
2021/06/16 07:43:07;;;;;;;;;22.75;21.50;;;;;;;;3551781;39;111881;-75
2021/06/16 07:45:39;;;;;;;;;32.00;26.25;;;;;;;;3550663;39;113801;-79
2021/06/16 07:48:06;;;;;;;;;30.00;28.00;;;;;;;;3548674;39;113716;-77
2021/06/16 07:50:36;;;;;;;;;30.50;25.75;;;;;;;;3549374;39;112114;-78
2021/06/16 07:53:04;;;;;;;;;19.50;19.00;;;;;;;;3552068;39;114855;-77
2021/06/16 07:55:30;;;;;;;;;32.00;29.00;;;;;;;;3548096;39;111901;-77
2021/06/16 07:58:02;;;;;;;;;26.33;25.67;;;;;;;;3546442;39;113729;-78
2021/06/16 08:00:31;;;;;;;;;28.25;27.50;;;;;;;;3549528;39;114027;-76
2021/06/16 08:02:59;;;;;;;;;28.00;26.00;;;;;;;;3548784;39;111954;-79
2021/06/16 08:05:34;;;;;;;;;29.67;27.00;;;;;;;;3550583;39;113773;-81
2021/06/16 08:08:00;;;;;;;;;25.00;23.33;;;;;;;;3549048;39;113832;-83
2021/06/16 08:10:28;;;;;;;;;29.33;25.00;;;;;;;;3549279;39;111978;-75
2021/06/16 08:12:56;;;;;;;;;25.33;24.33;;;;;;;;3550764;39;113639;-78
2021/06/16 08:15:22;;;;;;;;;27.33;27.00;;;;;;;;3551856;39;113880;-79
2021/06/16 08:17:50;;;;;;;;;27.33;26.33;;;;;;;;3549369;39;113702;-78
2021/06/16 08:20:19;;;;;;;;;29.00;29.00;;;;;;;;3548222;39;114245;-81
2021/06/16 08:22:47;;;;;;;;;27.67;25.67;;;;;;;;3548583;39;112693;-76
2021/06/16 08:25:14;;;;;;;;;24.67;23.00;;;;;;;;3548818;39;113256;-80
2021/06/16 08:27:41;;;;;;;;;23.00;22.33;;;;;;;;3548589;39;114376;-75
2021/06/16 08:30:09;;;;;;;;;31.00;29.67;;;;;;;;3549493;39;112223;-72
2021/06/16 08:32:36;;;;;;;;;24.67;24.33;;;;;;;;3547698;39;113734;-71
2021/06/16 08:35:03;;;;;;;;;26.33;26.33;;;;;;;;3547776;39;113822;-72
2021/06/16 08:37:31;;;;;;;;;28.00;25.67;;;;;;;;3550725;39;112367;-73
2021/06/16 08:39:58;;;;;;;;;28.00;24.00;;;;;;;;3547717;39;114042;-76
2021/06/16 08:42:26;;;;;;;;;30.00;27.67;;;;;;;;3548470;39;112242;-73
2021/06/16 08:44:54;;;;;;;;;26.00;25.33;;;;;;;;3548714;39;113365;-72
2021/06/16 08:47:21;;;;;;;;;25.67;25.00;;;;;;;;3546678;39;113841;-73
2021/06/16 08:49:47;;;;;;;;;29.33;27.67;;;;;;;;3548305;39;112392;-74
2021/06/16 08:52:14;;;;;;;;;48.75;41.00;;;;;;;;3548257;39;113061;-74
2021/06/16 08:54:42;;;;;;;;;27.33;26.00;;;;;;;;3548434;39;114026;-74
2021/06/16 08:57:10;;;;;;;;;27.00;25.33;;;;;;;;3553939;39;111950;-75
2021/06/16 08:59:37;;;;;;;;;24.00;24.00;;;;;;;;3549526;39;113082;-75
2021/06/16 09:02:03;;;;;;;;;22.00;22.00;;;;;;;;3549973;39;111826;-73
2021/06/16 09:04:43;;;;;;;;;22.33;22.00;;;;;;;;3550010;39;113577;-73
2021/06/16 09:07:12;;;;;;;;;23.33;23.33;;;;;;;;3547961;39;114403;-73
2021/06/16 09:09:39;;;;;;;;;23.33;23.33;;;;;;;;3549247;39;111931;-73
2021/06/16 09:12:07;;;;;;;;;22.67;22.67;;;;;;;;3548047;39;113203;-72
2021/06/16 09:14:35;;;;;;;;;20.00;20.00;;;;;;;;3549137;39;114321;-72
2021/06/16 09:17:02;;;;;;;;;21.00;19.00;;;;;;;;3549982;39;112034;-75
2021/06/16 09:19:31;;;;;;;;;23.00;22.33;;;;;;;;3550219;39;113307;-73
2021/06/16 09:21:59;;;;;;;;;26.00;23.33;;;;;;;;3548395;39;111858;-73
2021/06/16 09:24:25;;;;;;;;;23.33;22.33;;;;;;;;3549862;39;113191;-74
2021/06/16 09:26:52;;;;;;;;;27.67;27.00;;;;;;;;3547749;39;113885;-75
2021/06/16 09:29:29;;;;;;;;;25.00;24.33;;;;;;;;3548785;39;112529;-74
2021/06/16 09:32:02;;;;;;;;;20.00;19.00;;;;;;;;3548910;39;113209;-74
2021/06/16 09:34:29;;;;;;;;;22.33;20.33;;;;;;;;3548703;39;113910;-74
2021/06/16 09:36:56;;;;;;;;;25.00;24.67;;;;;;;;3549223;39;111953;-75
2021/06/16 09:39:25;;;;;;;;;19.67;18.67;;;;;;;;3549472;39;113238;-76
2021/06/16 09:41:52;;;;;;;;;27.00;24.67;;;;;;;;3552837;39;114085;-74
2021/06/16 09:44:34;;;;;;;;;23.00;21.67;;;;;;;;3548913;39;113243;-85
2021/06/16 09:47:11;;;;;;;;;26.00;24.67;;;;;;;;3547172;39;114475;-81
2021/06/16 09:49:48;;;;;;;;;29.67;28.33;;;;;;;;3547887;39;112174;-74
2021/06/16 09:52:29;;;;;;;;;24.33;22.33;;;;;;;;3548754;39;114806;-81
2021/06/16 09:54:56;;;;;;;;;30.00;27.33;;;;;;;;3548000;39;114751;-75
2021/06/16 09:57:22;;;;;;;;;33.67;31.33;;;;;;;;3548369;39;112685;-76
2021/06/16 09:59:50;;;;;;;;;23.00;23.00;;;;;;;;3548028;39;113287;-81
2021/06/16 10:02:19;;;;;;;;;23.00;21.67;;;;;;;;3548804;39;113086;-83
2021/06/16 10:04:48;;;;;;;;;26.33;23.67;;;;;;;;3551919;39;112122;-74
2021/06/16 10:07:16;;;;;;;;;23.00;23.00;;;;;;;;3550428;39;113845;-74
2021/06/16 10:09:47;;;;;;;;;24.33;22.00;;;;;;;;3548849;39;112676;-73
2021/06/16 10:12:14;;;;;;;;;17.67;17.67;;;;;;;;3546448;39;113345;-73
2021/06/16 10:14:41;;;;;;;;;24.00;24.00;;;;;;;;3546910;39;114148;-73
2021/06/16 10:17:08;;;;;;;;;23.00;23.00;;;;;;;;3549291;39;112154;-73
2021/06/16 10:19:36;;;;;;;;;25.67;25.33;;;;;;;;3548042;39;113746;-73
2021/06/16 10:22:03;;;;;;;;;33.00;30.67;;;;;;;;3547057;39;114799;-73
2021/06/16 10:24:30;;;;;;;;;21.00;21.00;;;;;;;;3545489;39;111917;-73
2021/06/16 10:26:58;;;;;;;;;27.33;27.00;;;;;;;;3551280;39;113388;-72
2021/06/16 10:29:28;;;;;;;;;26.00;21.67;;;;;;;;3547533;39;112211;-73
2021/06/16 10:31:55;;;;;;;;;26.67;23.33;;;;;;;;3548764;39;113377;-74
2021/06/16 10:34:21;;;;;;;;;20.67;20.00;;;;;;;;3546882;39;114400;-74
2021/06/16 10:39:42;;;;;;;;;20.00;20.00;;;;;;;;3569349;39;125446;-74
2021/06/16 10:42:09;;;;;;;;;26.00;25.00;;;;;;;;3576430;39;114688;-74
2021/06/16 10:44:36;;;;;;;;;24.00;23.00;;;;;;;;3575739;39;112283;-74
2021/06/16 10:47:05;;;;;;;;;33.33;30.67;;;;;;;;3577527;39;113399;-74
2021/06/16 10:49:56;;;;;;;;;27.33;25.67;;;;;;;;3575116;39;114298;-74
2021/06/16 10:52:25;;;;;;;;;17.67;16.67;;;;;;;;3570913;39;111894;-73
2021/06/16 10:54:58;;;;;;;;;19.33;19.33;;;;;;;;3576300;39;113179;-74
2021/06/16 10:57:24;;;;;;;;;23.33;22.00;;;;;;;;3576428;39;113601;-73
2021/06/16 11:00:02;;;;;;;;;18.00;17.67;;;;;;;;3578990;39;111845;-73
2021/06/16 11:03:02;;;;;;;;;15.33;14.67;;;;;;;;3575147;39;113171;-74
2021/06/16 11:05:33;;;;;;;;;20.67;20.33;;;;;;;;3575763;39;112155;-74
2021/06/16 11:08:02;;;;;;;;;18.67;18.67;;;;;;;;3577812;39;113550;-74
2021/06/16 11:10:44;;;;;;;;;25.00;23.67;;;;;;;;3575151;39;113878;-74
2021/06/16 11:13:32;;;;;;;;;22.33;22.33;;;;;;;;3575507;39;112165;-73
2021/06/16 11:15:58;;;;;;;;;22.67;20.33;;;;;;;;3575384;39;113440;-73
2021/06/16 11:18:28;;;;;;;;;19.00;19.00;;;;;;;;3576426;39;114015;-72
2021/06/16 11:20:58;;;;;;;;;20.67;20.67;;;;;;;;3575663;39;112021;-73
2021/06/16 11:23:27;;;;;;;;;22.00;20.67;;;;;;;;3578977;39;113704;-72
2021/06/16 11:25:54;;;;;;;;;22.67;22.67;;;;;;;;3575906;39;113306;-73
2021/06/16 11:28:35;;;;;;;;;25.33;25.33;;;;;;;;3576534;39;113224;-73
2021/06/16 11:31:09;;;;;;;;;24.00;24.00;;;;;;;;3575096;39;114122;-73
2021/06/16 11:33:56;;;;;;;;;25.67;24.00;;;;;;;;3575511;39;112172;-73
2021/06/16 11:36:37;;;;;;;;;22.33;22.33;;;;;;;;3575692;39;113353;-73
2021/06/16 11:39:07;;;;;;;;;21.67;21.00;;;;;;;;3575038;39;114002;-73
2021/06/16 11:41:33;;;;;;;;;22.00;22.00;;;;;;;;3577003;39;112062;-73
2021/06/16 11:44:09;;;;;;;;;25.00;24.00;;;;;;;;3575342;39;113635;-73
2021/06/16 11:46:36;;;;;;;;;22.00;21.33;;;;;;;;3577640;39;113931;-74
2021/06/16 11:49:05;;;;;;;;;24.33;24.33;;;;;;;;3576055;39;113256;-73
2021/06/16 11:51:36;;;;;;;;;23.00;22.00;;;;;;;;3567965;39;114507;-73
2021/06/16 11:54:20;;;;;;;;;22.33;22.33;;;;;;;;3568693;39;111775;-74
2021/06/16 11:56:48;;;;;;;;;22.33;21.00;;;;;;;;3569662;39;113422;-74
2021/06/16 11:59:29;;;;;;;;;24.67;23.67;;;;;;;;3569219;39;114100;-74
2021/06/16 12:02:03;;;;;;;;;26.67;26.67;;;;;;;;3570186;39;111889;-72
2021/06/16 12:04:42;;;;;;;;;24.00;24.00;;;;;;;;3568415;39;113456;-73
2021/06/16 12:07:09;;;;;;;;;18.33;16.00;;;;;;;;3568597;39;115066;-73
2021/06/16 12:09:43;;;;;;;;;25.67;23.67;;;;;;;;3572693;39;111798;-73
2021/06/16 12:12:10;;;;;;;;;23.67;22.67;;;;;;;;3568471;39;114356;-73
2021/06/16 12:14:38;;;;;;;;;24.67;22.00;;;;;;;;3570152;39;112092;-73
2021/06/16 12:17:05;;;;;;;;;16.67;15.33;;;;;;;;3568658;39;113208;-74
2021/06/16 12:19:34;;;;;;;;;18.00;16.00;;;;;;;;3569696;39;113987;-74
2021/06/16 12:22:02;;;;;;;;;18.00;18.00;;;;;;;;3568691;39;111939;-74
2021/06/16 12:24:30;;;;;;;;;24.00;22.67;;;;;;;;3568281;39;113575;-74
2021/06/16 12:26:58;;;;;;;;;19.67;18.67;;;;;;;;3569661;39;113919;-74
2021/06/16 12:29:25;;;;;;;;;20.00;19.33;;;;;;;;3568619;39;112031;-74
2021/06/16 12:31:54;;;;;;;;;25.00;23.33;;;;;;;;3571927;39;113238;-74
2021/06/16 12:34:30;;;;;;;;;26.33;25.67;;;;;;;;3568816;39;112014;-73
2021/06/16 12:37:05;;;;;;;;;23.00;20.00;;;;;;;;3568361;39;112451;-74
2021/06/16 12:39:32;;;;;;;;;22.33;21.33;;;;;;;;3567760;39;114161;-73
2021/06/16 12:42:03;;;;;;;;;21.33;20.00;;;;;;;;3568477;39;112101;-73
2021/06/16 12:44:38;;;;;;;;;22.33;21.00;;;;;;;;3568422;39;113593;-75
2021/06/16 12:47:06;;;;;;;;;22.00;20.67;;;;;;;;3567831;39;114043;-74
2021/06/16 12:49:35;;;;;;;;;20.00;19.00;;;;;;;;3565103;39;112250;-74
2021/06/16 12:52:04;;;;;;;;;20.67;18.67;;;;;;;;3568316;39;113531;-74
2021/06/16 12:54:41;;;;;;;;;21.67;21.00;;;;;;;;3572090;39;111736;-74
2021/06/16 12:57:12;;;;;;;;;25.00;21.00;;;;;;;;3568599;39;113634;-74
2021/06/16 12:59:40;;;;;;;;;21.67;21.67;;;;;;;;3569109;39;114038;-74
2021/06/16 13:02:08;;;;;;;;;22.00;19.67;;;;;;;;3567830;39;111956;-74
2021/06/16 13:04:47;;;;;;;;;21.33;20.67;;;;;;;;3569599;39;112990;-74
2021/06/16 13:07:14;;;;;;;;;25.00;24.00;;;;;;;;3568330;39;112443;-73
2021/06/16 13:09:41;;;;;;;;;23.67;22.67;;;;;;;;3569431;39;112421;-74
2021/06/16 13:12:08;;;;;;;;;20.33;19.00;;;;;;;;3568521;39;113283;-74
2021/06/16 13:14:41;;;;;;;;;24.33;22.67;;;;;;;;3572041;39;114092;-73
2021/06/16 13:17:09;;;;;;;;;19.33;19.33;;;;;;;;3568678;39;113696;-74
2021/06/16 13:19:51;;;;;;;;;20.00;20.00;;;;;;;;3569260;39;114043;-74
2021/06/16 13:22:30;;;;;;;;;20.00;20.00;;;;;;;;3568991;39;112267;-74
2021/06/16 13:24:59;;;;;;;;;19.67;19.67;;;;;;;;3568364;39;113726;-74
2021/06/16 13:27:32;;;;;;;;;22.67;21.00;;;;;;;;3569138;39;114044;-74
2021/06/16 13:29:59;;;;;;;;;18.00;17.67;;;;;;;;3568358;39;111961;-75
2021/06/16 13:32:37;;;;;;;;;21.67;20.67;;;;;;;;3569752;39;113480;-74
2021/06/16 13:35:04;;;;;;;;;23.33;23.33;;;;;;;;3567658;39;114413;-74
2021/06/16 13:37:30;;;;;;;;;32.67;29.67;;;;;;;;3570731;39;111976;-73
2021/06/16 13:39:57;;;;;;;;;20.67;20.00;;;;;;;;3569222;39;113872;-74
2021/06/16 13:42:24;;;;;;;;;26.67;25.67;;;;;;;;3569675;39;113215;-74
2021/06/16 13:44:51;;;;;;;;;35.33;29.67;;;;;;;;3569967;39;113490;-74
2021/06/16 13:47:17;;;;;;;;;27.33;26.33;;;;;;;;3568497;39;113954;-74
2021/06/16 13:49:45;;;;;;;;;25.00;23.67;;;;;;;;3568736;39;112024;-74
2021/06/16 13:52:12;;;;;;;;;24.00;21.00;;;;;;;;3569310;39;113556;-74
2021/06/16 13:54:38;;;;;;;;;23.67;22.33;;;;;;;;3567566;39;113835;-74
2021/06/16 13:57:05;;;;;;;;;34.33;29.33;;;;;;;;3569810;39;112300;-74
2021/06/16 13:59:32;;;;;;;;;23.33;23.33;;;;;;;;3570092;39;113235;-73
2021/06/16 14:01:58;;;;;;;;;25.67;23.67;;;;;;;;3569847;39;111869;-74
2021/06/16 14:04:28;;;;;;;;;25.33;25.33;;;;;;;;3568162;39;113459;-74
2021/06/16 14:06:56;;;;;;;;;31.67;27.67;;;;;;;;3569125;39;114224;-74
2021/06/16 14:09:22;;;;;;;;;26.67;24.00;;;;;;;;3568063;39;112697;-74
2021/06/16 14:11:50;;;;;;;;;23.33;23.00;;;;;;;;3569481;39;113440;-74
2021/06/16 14:14:17;;;;;;;;;22.00;20.00;;;;;;;;3568075;39;114167;-74